Thursday, November 23, 2017, 7:18 PM EST
Back to Local

KMHT, Manchester Airport

Location: Manchester, NH, United States Lat: 42.933
Local Time: 7:18 PM EST ( 0:18 GMT) Lon: -71.433
Time Zone: US/Eastern Elev: 232 ft

Show me the last for .
Show Coded

Time T Td Feel RH Dir Speed Gust Alt SLP Vis Weather Sky Remarks
2017-11-23 18:53 35 15 31 43 330° 5 - 29.96 30.01 10 SCT200 BKN250 6-hr Min Temp (7pm): 35.1°F
6-hr Max Temp (7pm): 39.9°F
2017-11-23 17:53 36 15 33 41 330° 3 - 29.96 30.01 10 BKN150 BKN250 None
2017-11-23 16:53 37 15 33 40 330° 5 - 29.96 30.01 10 BKN150 BKN250 None
2017-11-23 15:53 39 14 33 35 350° 8 - 29.95 30.00 10 SCT130 BKN200 BKN250 None
2017-11-23 14:53 39 13 35 33 340° 6 - 29.95 30.00 10 BKN200 BKN250 None
2017-11-23 13:53 39 13 35 33 310° 6 - 29.96 30.01 10 BKN200 BKN250 None
2017-11-23 12:53 39 12 32 32 320° 12 - 29.97 30.02 10 FEW200 FEW250 6-hr Min Temp (1pm): 28.9°F
6-hr Max Temp (1pm): 39.0°F
2017-11-23 11:53 37 13 30 36 300° 10 - 29.98 30.03 10 FEW120 SCT250 None
2017-11-23 10:53 35 14 27 41 310° 10 - 30.00 30.05 10 FEW120 SCT250 None
2017-11-23 09:53 33 15 24 47 310° 12 - 30.00 30.05 10 FEW120 SCT250 None
2017-11-23 08:53 31 16 21 53 320° 13 - 30.00 30.06 10 FEW045 FEW120 SCT250 None
2017-11-23 07:53 30 17 24 58 340° 6 - 30.01 30.06 10 FEW045 SCT200 None
2017-11-23 06:53 30 16 21 55 310° 12 - 30.01 30.06 10 FEW045 24-hr Precip Total (7am): 0.37"
6-hr Min Temp (7am): 28.9°F
6-hr Max Temp (7am): 35.1°F
2017-11-23 05:53 30 17 22 58 350° 8 - 29.99 30.04 10 FEW045 None
2017-11-23 04:53 30 17 22 58 320° 8 - 29.99 30.03 10 FEW045 None
2017-11-23 03:53 31 19 17 60 320° 12 25 29.97 30.02 10 FEW045 None
2017-11-23 02:53 32 20 24 60 310° 10 - 29.96 30.01 10 SCT038 None
2017-11-23 01:53 33 21 22 60 330° 10 17 29.95 30.00 10 SCT038 None
2017-11-23 00:53 35 22 29 58 320° 7 - 29.93 29.98 10 BKN036 Peak wind: 33 mph (29 kts) from 310° at 01 min
6-hr Min Temp (1am): 34.0°F
6-hr Max Temp (1am): 37.9°F
2017-11-22 23:53 36 21 23 54 320° 21 29 29.93 29.97 10 SCT038 24-hr Min Temp (12am): 36.0°F
24-hr Max Temp (12am): 44.1°F
2017-11-22 22:53 36 23 24 58 320° 10 23 29.90 29.95 10 SCT038 None
2017-11-22 21:53 38 24 26 56 320° 17 29 29.89 29.94 10 SCT040 Peak wind: 29 mph (26 kts) from 330° at 32 min
2017-11-22 20:53 38 29 27 69 330° 12 24 29.89 29.93 10 FEW028 OVC040 None
2017-11-22 19:53 38 31 31 75 320° 10 - 29.88 29.92 10 SCT028 OVC040 None

Support USWX by starting your Amazon purchase here.